sensor_id;sensor_type;location;lat;lon;timestamp;P1;durP1;ratioP1;P2;durP2;ratioP2
13720;SDS011;6932;51.438;5.470;2023-11-22T00:00:29;13.20;;;8.67;;
13720;SDS011;6932;51.438;5.470;2023-11-22T00:02:56;13.17;;;9.00;;
13720;SDS011;6932;51.438;5.470;2023-11-22T00:05:22;13.40;;;9.07;;
13720;SDS011;6932;51.438;5.470;2023-11-22T00:07:47;13.67;;;8.70;;
13720;SDS011;6932;51.438;5.470;2023-11-22T00:10:13;12.50;;;8.50;;
13720;SDS011;6932;51.438;5.470;2023-11-22T00:12:39;13.07;;;8.63;;
13720;SDS011;6932;51.438;5.470;2023-11-22T00:15:05;14.30;;;8.60;;
13720;SDS011;6932;51.438;5.470;2023-11-22T00:17:33;12.63;;;8.63;;
13720;SDS011;6932;51.438;5.470;2023-11-22T00:20:00;12.63;;;8.77;;
13720;SDS011;6932;51.438;5.470;2023-11-22T00:22:30;12.40;;;8.17;;
13720;SDS011;6932;51.438;5.470;2023-11-22T00:24:57;13.27;;;8.47;;
13720;SDS011;6932;51.438;5.470;2023-11-22T00:27:26;12.83;;;8.40;;
13720;SDS011;6932;51.438;5.470;2023-11-22T00:29:56;11.20;;;7.40;;
13720;SDS011;6932;51.438;5.470;2023-11-22T00:32:23;11.80;;;8.23;;
13720;SDS011;6932;51.438;5.470;2023-11-22T00:34:49;12.00;;;8.53;;
13720;SDS011;6932;51.438;5.470;2023-11-22T00:37:15;11.80;;;8.17;;
13720;SDS011;6932;51.438;5.470;2023-11-22T00:39:41;11.63;;;7.70;;
13720;SDS011;6932;51.438;5.470;2023-11-22T00:42:07;11.87;;;8.20;;
13720;SDS011;6932;51.438;5.470;2023-11-22T00:44:34;12.17;;;8.00;;
13720;SDS011;6932;51.438;5.470;2023-11-22T00:47:01;11.77;;;8.13;;
13720;SDS011;6932;51.438;5.470;2023-11-22T00:49:27;12.30;;;8.17;;
13720;SDS011;6932;51.438;5.470;2023-11-22T00:51:53;11.93;;;7.40;;
13720;SDS011;6932;51.438;5.470;2023-11-22T00:54:19;12.10;;;8.07;;
13720;SDS011;6932;51.438;5.470;2023-11-22T00:56:45;12.77;;;8.30;;
13720;SDS011;6932;51.438;5.470;2023-11-22T00:59:12;13.33;;;8.60;;
13720;SDS011;6932;51.438;5.470;2023-11-22T01:01:39;11.53;;;7.80;;
13720;SDS011;6932;51.438;5.470;2023-11-22T01:04:06;13.13;;;8.53;;
13720;SDS011;6932;51.438;5.470;2023-11-22T01:06:32;12.13;;;7.87;;
13720;SDS011;6932;51.438;5.470;2023-11-22T01:08:59;11.33;;;7.73;;
13720;SDS011;6932;51.438;5.470;2023-11-22T01:11:25;13.23;;;8.20;;
13720;SDS011;6932;51.438;5.470;2023-11-22T01:13:51;12.57;;;7.77;;
13720;SDS011;6932;51.438;5.470;2023-11-22T01:16:17;12.30;;;8.17;;
13720;SDS011;6932;51.438;5.470;2023-11-22T01:18:43;11.50;;;7.77;;
13720;SDS011;6932;51.438;5.470;2023-11-22T01:21:11;12.90;;;8.33;;
13720;SDS011;6932;51.438;5.470;2023-11-22T01:23:37;11.87;;;8.23;;
13720;SDS011;6932;51.438;5.470;2023-11-22T01:26:03;12.80;;;8.37;;
13720;SDS011;6932;51.438;5.470;2023-11-22T01:28:29;12.50;;;8.43;;
13720;SDS011;6932;51.438;5.470;2023-11-22T01:30:59;13.80;;;8.27;;
13720;SDS011;6932;51.438;5.470;2023-11-22T01:33:27;11.87;;;7.90;;
13720;SDS011;6932;51.438;5.470;2023-11-22T01:35:53;14.40;;;8.57;;
13720;SDS011;6932;51.438;5.470;2023-11-22T01:38:18;13.10;;;8.27;;
13720;SDS011;6932;51.438;5.470;2023-11-22T01:40:44;12.50;;;8.20;;
13720;SDS011;6932;51.438;5.470;2023-11-22T01:43:16;12.17;;;8.23;;
13720;SDS011;6932;51.438;5.470;2023-11-22T01:45:44;12.83;;;8.80;;
13720;SDS011;6932;51.438;5.470;2023-11-22T01:48:10;12.73;;;8.20;;
13720;SDS011;6932;51.438;5.470;2023-11-22T01:50:37;12.33;;;8.17;;
13720;SDS011;6932;51.438;5.470;2023-11-22T01:53:05;13.67;;;8.23;;
13720;SDS011;6932;51.438;5.470;2023-11-22T01:55:33;14.17;;;8.10;;
13720;SDS011;6932;51.438;5.470;2023-11-22T01:58:00;12.37;;;8.17;;
13720;SDS011;6932;51.438;5.470;2023-11-22T02:00:27;12.40;;;8.47;;
13720;SDS011;6932;51.438;5.470;2023-11-22T02:03:01;12.83;;;7.97;;
13720;SDS011;6932;51.438;5.470;2023-11-22T02:05:27;11.43;;;8.00;;
13720;SDS011;6932;51.438;5.470;2023-11-22T02:07:53;14.67;;;8.20;;
13720;SDS011;6932;51.438;5.470;2023-11-22T02:10:20;13.03;;;8.33;;
13720;SDS011;6932;51.438;5.470;2023-11-22T02:12:45;12.90;;;8.53;;
13720;SDS011;6932;51.438;5.470;2023-11-22T02:15:14;12.87;;;8.53;;
13720;SDS011;6932;51.438;5.470;2023-11-22T02:17:51;12.30;;;8.43;;
13720;SDS011;6932;51.438;5.470;2023-11-22T02:20:43;12.87;;;8.40;;
13720;SDS011;6932;51.438;5.470;2023-11-22T02:23:19;14.63;;;8.90;;
13720;SDS011;6932;51.438;5.470;2023-11-22T02:31:31;13.00;;;8.90;;
13720;SDS011;6932;51.438;5.470;2023-11-22T02:34:17;12.73;;;8.43;;
13720;SDS011;6932;51.438;5.470;2023-11-22T02:36:59;12.10;;;8.37;;
13720;SDS011;6932;51.438;5.470;2023-11-22T02:39:50;13.27;;;8.83;;
13720;SDS011;6932;51.438;5.470;2023-11-22T02:42:50;13.07;;;8.60;;
13720;SDS011;6932;51.438;5.470;2023-11-22T02:45:36;12.80;;;8.67;;
13720;SDS011;6932;51.438;5.470;2023-11-22T02:48:12;13.83;;;9.17;;
13720;SDS011;6932;51.438;5.470;2023-11-22T02:50:49;13.03;;;8.50;;
13720;SDS011;6932;51.438;5.470;2023-11-22T02:53:23;12.90;;;8.50;;
13720;SDS011;6932;51.438;5.470;2023-11-22T02:56:16;12.37;;;8.43;;
13720;SDS011;6932;51.438;5.470;2023-11-22T02:58:55;12.60;;;8.90;;
13720;SDS011;6932;51.438;5.470;2023-11-22T03:01:54;13.37;;;8.97;;
13720;SDS011;6932;51.438;5.470;2023-11-22T03:04:23;13.30;;;8.57;;
13720;SDS011;6932;51.438;5.470;2023-11-22T03:06:57;12.57;;;8.20;;
13720;SDS011;6932;51.438;5.470;2023-11-22T03:09:40;13.33;;;8.57;;
13720;SDS011;6932;51.438;5.470;2023-11-22T03:12:19;14.00;;;8.80;;
13720;SDS011;6932;51.438;5.470;2023-11-22T03:14:48;12.53;;;8.40;;
13720;SDS011;6932;51.438;5.470;2023-11-22T03:17:35;14.00;;;8.93;;
13720;SDS011;6932;51.438;5.470;2023-11-22T03:20:10;12.93;;;8.83;;
13720;SDS011;6932;51.438;5.470;2023-11-22T03:22:42;14.27;;;9.10;;
13720;SDS011;6932;51.438;5.470;2023-11-22T03:25:22;12.83;;;8.43;;
13720;SDS011;6932;51.438;5.470;2023-11-22T03:27:54;12.80;;;8.50;;
13720;SDS011;6932;51.438;5.470;2023-11-22T03:30:41;13.30;;;8.40;;
13720;SDS011;6932;51.438;5.470;2023-11-22T03:36:19;12.87;;;8.57;;
13720;SDS011;6932;51.438;5.470;2023-11-22T03:38:58;13.70;;;9.00;;
13720;SDS011;6932;51.438;5.470;2023-11-22T03:41:52;13.10;;;8.87;;
13720;SDS011;6932;51.438;5.470;2023-11-22T03:44:38;13.73;;;8.50;;
13720;SDS011;6932;51.438;5.470;2023-11-22T03:47:16;12.40;;;8.33;;
13720;SDS011;6932;51.438;5.470;2023-11-22T03:50:02;12.77;;;8.57;;
13720;SDS011;6932;51.438;5.470;2023-11-22T03:52:37;12.60;;;8.60;;
13720;SDS011;6932;51.438;5.470;2023-11-22T03:55:23;12.83;;;8.63;;
13720;SDS011;6932;51.438;5.470;2023-11-22T03:58:15;12.57;;;8.50;;
13720;SDS011;6932;51.438;5.470;2023-11-22T04:00:59;14.43;;;8.87;;
13720;SDS011;6932;51.438;5.470;2023-11-22T04:03:53;12.90;;;8.67;;
13720;SDS011;6932;51.438;5.470;2023-11-22T04:06:27;13.73;;;8.90;;
13720;SDS011;6932;51.438;5.470;2023-11-22T04:09:35;13.57;;;8.60;;
13720;SDS011;6932;51.438;5.470;2023-11-22T04:12:08;13.37;;;8.63;;
13720;SDS011;6932;51.438;5.470;2023-11-22T04:14:37;13.80;;;9.17;;
13720;SDS011;6932;51.438;5.470;2023-11-22T04:17:22;13.57;;;8.57;;
13720;SDS011;6932;51.438;5.470;2023-11-22T04:19:56;12.90;;;8.83;;
13720;SDS011;6932;51.438;5.470;2023-11-22T04:22:34;13.50;;;9.10;;
13720;SDS011;6932;51.438;5.470;2023-11-22T04:25:10;12.43;;;7.87;;
13720;SDS011;6932;51.438;5.470;2023-11-22T04:28:01;13.43;;;8.40;;
13720;SDS011;6932;51.438;5.470;2023-11-22T04:30:49;14.27;;;9.20;;
13720;SDS011;6932;51.438;5.470;2023-11-22T04:33:29;12.93;;;8.50;;
13720;SDS011;6932;51.438;5.470;2023-11-22T04:36:05;13.67;;;9.00;;
13720;SDS011;6932;51.438;5.470;2023-11-22T04:38:46;12.70;;;8.40;;
13720;SDS011;6932;51.438;5.470;2023-11-22T04:41:25;13.70;;;9.37;;
13720;SDS011;6932;51.438;5.470;2023-11-22T04:46:36;13.43;;;8.60;;
13720;SDS011;6932;51.438;5.470;2023-11-22T04:49:10;13.27;;;8.90;;
13720;SDS011;6932;51.438;5.470;2023-11-22T04:51:44;13.13;;;8.83;;
13720;SDS011;6932;51.438;5.470;2023-11-22T04:54:20;13.03;;;8.80;;
13720;SDS011;6932;51.438;5.470;2023-11-22T04:56:58;13.50;;;8.87;;
13720;SDS011;6932;51.438;5.470;2023-11-22T04:59:39;13.93;;;8.90;;
13720;SDS011;6932;51.438;5.470;2023-11-22T05:02:17;14.93;;;9.13;;
13720;SDS011;6932;51.438;5.470;2023-11-22T05:04:51;14.57;;;9.27;;
13720;SDS011;6932;51.438;5.470;2023-11-22T05:07:46;13.57;;;9.33;;
13720;SDS011;6932;51.438;5.470;2023-11-22T05:10:32;13.53;;;8.93;;
13720;SDS011;6932;51.438;5.470;2023-11-22T05:13:05;13.67;;;8.80;;
13720;SDS011;6932;51.438;5.470;2023-11-22T05:15:46;13.40;;;8.80;;
13720;SDS011;6932;51.438;5.470;2023-11-22T05:18:38;13.37;;;9.10;;
13720;SDS011;6932;51.438;5.470;2023-11-22T05:21:17;13.63;;;8.97;;
13720;SDS011;6932;51.438;5.470;2023-11-22T05:23:57;13.47;;;9.10;;
13720;SDS011;6932;51.438;5.470;2023-11-22T05:26:36;15.20;;;9.47;;
13720;SDS011;6932;51.438;5.470;2023-11-22T05:29:15;14.20;;;9.70;;
13720;SDS011;6932;51.438;5.470;2023-11-22T05:32:22;14.37;;;9.60;;
13720;SDS011;6932;51.438;5.470;2023-11-22T05:34:59;13.57;;;9.03;;
13720;SDS011;6932;51.438;5.470;2023-11-22T05:37:30;14.17;;;9.60;;
13720;SDS011;6932;51.438;5.470;2023-11-22T05:39:58;17.40;;;10.20;;
13720;SDS011;6932;51.438;5.470;2023-11-22T05:42:31;14.40;;;9.87;;
13720;SDS011;6932;51.438;5.470;2023-11-22T05:45:07;16.50;;;10.67;;
13720;SDS011;6932;51.438;5.470;2023-11-22T05:47:43;17.00;;;10.30;;
13720;SDS011;6932;51.438;5.470;2023-11-22T05:50:30;15.33;;;10.10;;
13720;SDS011;6932;51.438;5.470;2023-11-22T05:53:01;14.87;;;9.77;;
13720;SDS011;6932;51.438;5.470;2023-11-22T05:55:40;13.53;;;8.97;;
13720;SDS011;6932;51.438;5.470;2023-11-22T05:58:13;15.43;;;10.33;;
13720;SDS011;6932;51.438;5.470;2023-11-22T06:00:49;14.40;;;9.83;;
13720;SDS011;6932;51.438;5.470;2023-11-22T06:03:21;17.57;;;10.77;;
13720;SDS011;6932;51.438;5.470;2023-11-22T06:05:57;17.00;;;10.73;;
13720;SDS011;6932;51.438;5.470;2023-11-22T06:08:26;15.50;;;10.47;;
13720;SDS011;6932;51.438;5.470;2023-11-22T06:10:58;16.00;;;10.30;;
13720;SDS011;6932;51.438;5.470;2023-11-22T06:13:27;15.10;;;9.93;;
13720;SDS011;6932;51.438;5.470;2023-11-22T06:16:02;14.90;;;9.40;;
13720;SDS011;6932;51.438;5.470;2023-11-22T06:18:32;15.13;;;9.90;;
13720;SDS011;6932;51.438;5.470;2023-11-22T06:21:09;13.83;;;9.43;;
13720;SDS011;6932;51.438;5.470;2023-11-22T06:23:48;14.03;;;9.23;;
13720;SDS011;6932;51.438;5.470;2023-11-22T06:26:15;16.03;;;9.63;;
13720;SDS011;6932;51.438;5.470;2023-11-22T06:28:44;14.40;;;8.90;;
13720;SDS011;6932;51.438;5.470;2023-11-22T06:31:24;13.93;;;9.07;;
13720;SDS011;6932;51.438;5.470;2023-11-22T06:34:00;13.03;;;8.57;;
13720;SDS011;6932;51.438;5.470;2023-11-22T06:36:32;14.30;;;9.53;;
13720;SDS011;6932;51.438;5.470;2023-11-22T06:39:09;14.03;;;9.20;;
13720;SDS011;6932;51.438;5.470;2023-11-22T06:41:57;16.27;;;9.73;;
13720;SDS011;6932;51.438;5.470;2023-11-22T06:44:35;15.97;;;9.27;;
13720;SDS011;6932;51.438;5.470;2023-11-22T06:47:18;15.43;;;9.10;;
13720;SDS011;6932;51.438;5.470;2023-11-22T08:35:37;29.30;;;16.47;;
13720;SDS011;6932;51.438;5.470;2023-11-22T08:38:02;27.47;;;16.40;;
13720;SDS011;6932;51.438;5.470;2023-11-22T08:40:30;24.40;;;15.07;;
13720;SDS011;6932;51.438;5.470;2023-11-22T08:42:55;27.10;;;15.73;;
13720;SDS011;6932;51.438;5.470;2023-11-22T08:45:21;24.37;;;15.37;;
13720;SDS011;6932;51.438;5.470;2023-11-22T08:47:47;25.30;;;15.63;;
13720;SDS011;6932;51.438;5.470;2023-11-22T08:50:12;25.53;;;15.83;;
13720;SDS011;6932;51.438;5.470;2023-11-22T08:52:40;26.77;;;16.13;;
13720;SDS011;6932;51.438;5.470;2023-11-22T08:55:10;25.30;;;15.97;;
13720;SDS011;6932;51.438;5.470;2023-11-22T08:57:36;26.43;;;16.67;;
13720;SDS011;6932;51.438;5.470;2023-11-22T09:00:03;26.33;;;16.10;;
13720;SDS011;6932;51.438;5.470;2023-11-22T09:02:38;25.93;;;16.03;;
13720;SDS011;6932;51.438;5.470;2023-11-22T09:05:07;26.80;;;15.93;;
13720;SDS011;6932;51.438;5.470;2023-11-22T09:07:33;24.13;;;15.67;;
13720;SDS011;6932;51.438;5.470;2023-11-22T09:10:01;26.30;;;16.37;;
13720;SDS011;6932;51.438;5.470;2023-11-22T09:12:35;28.43;;;16.87;;
13720;SDS011;6932;51.438;5.470;2023-11-22T09:15:04;29.43;;;18.37;;
13720;SDS011;6932;51.438;5.470;2023-11-22T09:17:34;29.23;;;18.17;;
13720;SDS011;6932;51.438;5.470;2023-11-22T09:20:08;28.83;;;18.67;;
13720;SDS011;6932;51.438;5.470;2023-11-22T09:22:45;31.63;;;19.07;;
13720;SDS011;6932;51.438;5.470;2023-11-22T09:25:17;30.33;;;18.60;;
13720;SDS011;6932;51.438;5.470;2023-11-22T09:27:51;29.97;;;18.67;;
13720;SDS011;6932;51.438;5.470;2023-11-22T09:30:21;28.77;;;18.17;;
13720;SDS011;6932;51.438;5.470;2023-11-22T09:33:19;29.10;;;18.93;;
13720;SDS011;6932;51.438;5.470;2023-11-22T09:35:44;27.63;;;17.27;;
13720;SDS011;6932;51.438;5.470;2023-11-22T09:38:12;27.77;;;17.73;;
13720;SDS011;6932;51.438;5.470;2023-11-22T09:40:45;29.93;;;19.10;;
13720;SDS011;6932;51.438;5.470;2023-11-22T09:43:13;29.67;;;18.90;;
13720;SDS011;6932;51.438;5.470;2023-11-22T09:45:43;29.00;;;17.17;;
13720;SDS011;6932;51.438;5.470;2023-11-22T09:48:16;28.10;;;17.97;;
13720;SDS011;6932;51.438;5.470;2023-11-22T09:50:53;27.40;;;17.97;;
13720;SDS011;6932;51.438;5.470;2023-11-22T09:53:36;26.67;;;17.53;;
13720;SDS011;6932;51.438;5.470;2023-11-22T09:56:21;26.83;;;16.70;;
13720;SDS011;6932;51.438;5.470;2023-11-22T09:58:53;27.73;;;17.63;;
13720;SDS011;6932;51.438;5.470;2023-11-22T10:01:24;26.87;;;16.93;;
13720;SDS011;6932;51.438;5.470;2023-11-22T10:03:50;26.77;;;17.30;;
13720;SDS011;6932;51.438;5.470;2023-11-22T10:06:16;26.90;;;17.63;;
13720;SDS011;6932;51.438;5.470;2023-11-22T10:08:43;30.17;;;19.57;;
13720;SDS011;6932;51.438;5.470;2023-11-22T10:11:14;28.83;;;17.63;;
13720;SDS011;6932;51.438;5.470;2023-11-22T10:13:51;31.03;;;18.53;;
13720;SDS011;6932;51.438;5.470;2023-11-22T10:16:17;31.37;;;19.00;;
13720;SDS011;6932;51.438;5.470;2023-11-22T10:18:45;29.60;;;18.90;;
13720;SDS011;6932;51.438;5.470;2023-11-22T10:21:18;31.77;;;18.67;;
13720;SDS011;6932;51.438;5.470;2023-11-22T10:23:55;31.03;;;18.57;;
13720;SDS011;6932;51.438;5.470;2023-11-22T10:26:25;30.93;;;18.57;;
13720;SDS011;6932;51.438;5.470;2023-11-22T10:28:53;29.53;;;18.77;;
13720;SDS011;6932;51.438;5.470;2023-11-22T10:31:20;28.83;;;18.27;;
13720;SDS011;6932;51.438;5.470;2023-11-22T10:33:47;30.40;;;18.27;;
13720;SDS011;6932;51.438;5.470;2023-11-22T10:36:16;30.47;;;18.50;;
13720;SDS011;6932;51.438;5.470;2023-11-22T10:38:46;29.13;;;18.33;;
13720;SDS011;6932;51.438;5.470;2023-11-22T10:41:12;28.57;;;18.73;;
13720;SDS011;6932;51.438;5.470;2023-11-22T10:43:39;27.60;;;17.57;;
13720;SDS011;6932;51.438;5.470;2023-11-22T10:46:07;27.40;;;18.17;;
13720;SDS011;6932;51.438;5.470;2023-11-22T10:48:37;25.33;;;16.83;;
13720;SDS011;6932;51.438;5.470;2023-11-22T10:51:03;28.10;;;17.10;;
13720;SDS011;6932;51.438;5.470;2023-11-22T10:53:36;27.07;;;17.10;;
13720;SDS011;6932;51.438;5.470;2023-11-22T10:56:12;27.07;;;17.23;;
13720;SDS011;6932;51.438;5.470;2023-11-22T10:58:48;27.67;;;17.10;;
13720;SDS011;6932;51.438;5.470;2023-11-22T11:01:23;25.70;;;16.93;;
13720;SDS011;6932;51.438;5.470;2023-11-22T11:06:22;26.87;;;17.23;;
13720;SDS011;6932;51.438;5.470;2023-11-22T11:08:55;27.47;;;17.27;;
13720;SDS011;6932;51.438;5.470;2023-11-22T11:11:25;26.70;;;18.07;;
13720;SDS011;6932;51.438;5.470;2023-11-22T11:13:53;30.57;;;17.97;;
13720;SDS011;6932;51.438;5.470;2023-11-22T11:16:19;27.20;;;18.20;;
13720;SDS011;6932;51.438;5.470;2023-11-22T11:18:47;26.77;;;17.67;;
13720;SDS011;6932;51.438;5.470;2023-11-22T11:21:14;25.03;;;16.83;;
13720;SDS011;6932;51.438;5.470;2023-11-22T11:23:40;27.47;;;17.37;;
13720;SDS011;6932;51.438;5.470;2023-11-22T11:26:18;22.80;;;14.53;;
13720;SDS011;6932;51.438;5.470;2023-11-22T11:28:48;23.27;;;15.83;;
13720;SDS011;6932;51.438;5.470;2023-11-22T11:31:16;23.20;;;15.57;;
13720;SDS011;6932;51.438;5.470;2023-11-22T11:36:24;22.07;;;15.43;;
13720;SDS011;6932;51.438;5.470;2023-11-22T11:38:54;23.40;;;15.43;;
13720;SDS011;6932;51.438;5.470;2023-11-22T11:41:28;24.53;;;15.80;;
13720;SDS011;6932;51.438;5.470;2023-11-22T11:44:03;23.80;;;15.43;;
13720;SDS011;6932;51.438;5.470;2023-11-22T11:46:32;22.63;;;15.20;;
13720;SDS011;6932;51.438;5.470;2023-11-22T11:48:58;21.73;;;14.17;;
13720;SDS011;6932;51.438;5.470;2023-11-22T11:51:27;21.40;;;13.60;;
13720;SDS011;6932;51.438;5.470;2023-11-22T11:53:54;22.37;;;14.40;;
13720;SDS011;6932;51.438;5.470;2023-11-22T11:56:21;21.63;;;13.40;;
13720;SDS011;6932;51.438;5.470;2023-11-22T11:58:48;21.63;;;14.40;;
13720;SDS011;6932;51.438;5.470;2023-11-22T12:01:16;23.03;;;14.40;;
13720;SDS011;6932;51.438;5.470;2023-11-22T12:03:45;21.60;;;14.23;;
13720;SDS011;6932;51.438;5.470;2023-11-22T12:06:17;22.50;;;14.53;;
13720;SDS011;6932;51.438;5.470;2023-11-22T12:08:44;22.30;;;14.17;;
13720;SDS011;6932;51.438;5.470;2023-11-22T12:11:12;22.80;;;14.87;;
13720;SDS011;6932;51.438;5.470;2023-11-22T12:13:43;22.20;;;14.17;;
13720;SDS011;6932;51.438;5.470;2023-11-22T12:16:13;23.77;;;15.97;;
13720;SDS011;6932;51.438;5.470;2023-11-22T12:18:42;23.30;;;15.67;;
13720;SDS011;6932;51.438;5.470;2023-11-22T12:21:15;25.77;;;16.63;;
13720;SDS011;6932;51.438;5.470;2023-11-22T12:23:43;25.97;;;17.40;;
13720;SDS011;6932;51.438;5.470;2023-11-22T12:26:12;26.47;;;17.10;;
13720;SDS011;6932;51.438;5.470;2023-11-22T12:28:47;25.83;;;17.97;;
13720;SDS011;6932;51.438;5.470;2023-11-22T12:31:15;24.00;;;16.33;;
13720;SDS011;6932;51.438;5.470;2023-11-22T12:33:41;26.17;;;17.43;;
13720;SDS011;6932;51.438;5.470;2023-11-22T12:36:08;25.20;;;16.00;;
13720;SDS011;6932;51.438;5.470;2023-11-22T12:38:36;22.47;;;14.97;;
13720;SDS011;6932;51.438;5.470;2023-11-22T12:41:02;23.23;;;15.23;;
13720;SDS011;6932;51.438;5.470;2023-11-22T12:43:28;22.60;;;14.50;;
13720;SDS011;6932;51.438;5.470;2023-11-22T12:46:02;23.43;;;15.17;;
13720;SDS011;6932;51.438;5.470;2023-11-22T12:48:32;22.13;;;14.50;;
13720;SDS011;6932;51.438;5.470;2023-11-22T12:50:59;20.73;;;14.70;;
13720;SDS011;6932;51.438;5.470;2023-11-22T12:53:25;21.33;;;13.87;;
13720;SDS011;6932;51.438;5.470;2023-11-22T12:55:55;21.70;;;13.67;;
13720;SDS011;6932;51.438;5.470;2023-11-22T12:58:22;21.63;;;13.30;;
13720;SDS011;6932;51.438;5.470;2023-11-22T13:00:53;20.33;;;13.20;;
13720;SDS011;6932;51.438;5.470;2023-11-22T13:03:27;20.37;;;12.90;;
13720;SDS011;6932;51.438;5.470;2023-11-22T13:05:53;19.50;;;12.20;;
13720;SDS011;6932;51.438;5.470;2023-11-22T13:08:20;20.17;;;12.73;;
13720;SDS011;6932;51.438;5.470;2023-11-22T13:10:54;18.13;;;11.90;;
13720;SDS011;6932;51.438;5.470;2023-11-22T13:13:23;18.67;;;11.53;;
13720;SDS011;6932;51.438;5.470;2023-11-22T13:15:50;18.23;;;12.10;;
13720;SDS011;6932;51.438;5.470;2023-11-22T13:18:16;19.67;;;12.60;;
13720;SDS011;6932;51.438;5.470;2023-11-22T13:20:43;17.83;;;11.50;;
13720;SDS011;6932;51.438;5.470;2023-11-22T13:23:10;19.30;;;11.60;;
13720;SDS011;6932;51.438;5.470;2023-11-22T13:25:38;17.97;;;11.80;;
13720;SDS011;6932;51.438;5.470;2023-11-22T13:28:06;19.57;;;11.67;;
13720;SDS011;6932;51.438;5.470;2023-11-22T13:30:33;21.63;;;12.83;;
13720;SDS011;6932;51.438;5.470;2023-11-22T13:33:00;19.93;;;12.57;;
13720;SDS011;6932;51.438;5.470;2023-11-22T13:35:27;20.00;;;12.80;;
13720;SDS011;6932;51.438;5.470;2023-11-22T13:37:58;19.13;;;12.87;;
13720;SDS011;6932;51.438;5.470;2023-11-22T13:40:26;19.63;;;12.10;;
13720;SDS011;6932;51.438;5.470;2023-11-22T13:42:55;19.80;;;13.47;;
13720;SDS011;6932;51.438;5.470;2023-11-22T13:45:22;20.13;;;13.43;;
13720;SDS011;6932;51.438;5.470;2023-11-22T13:47:48;20.73;;;14.07;;
13720;SDS011;6932;51.438;5.470;2023-11-22T13:50:19;23.97;;;15.40;;
13720;SDS011;6932;51.438;5.470;2023-11-22T13:52:50;21.80;;;15.33;;
13720;SDS011;6932;51.438;5.470;2023-11-22T13:55:18;23.00;;;15.93;;
13720;SDS011;6932;51.438;5.470;2023-11-22T13:57:48;22.63;;;14.63;;
13720;SDS011;6932;51.438;5.470;2023-11-22T14:00:15;21.83;;;14.20;;
13720;SDS011;6932;51.438;5.470;2023-11-22T14:02:51;21.67;;;14.47;;
13720;SDS011;6932;51.438;5.470;2023-11-22T14:05:20;22.37;;;14.93;;
13720;SDS011;6932;51.438;5.470;2023-11-22T14:07:50;22.77;;;14.60;;
13720;SDS011;6932;51.438;5.470;2023-11-22T14:10:17;22.23;;;14.13;;
13720;SDS011;6932;51.438;5.470;2023-11-22T14:12:44;22.83;;;13.90;;
13720;SDS011;6932;51.438;5.470;2023-11-22T14:15:11;23.07;;;14.33;;
13720;SDS011;6932;51.438;5.470;2023-11-22T14:17:37;22.50;;;14.20;;
13720;SDS011;6932;51.438;5.470;2023-11-22T14:20:06;22.33;;;14.17;;
13720;SDS011;6932;51.438;5.470;2023-11-22T14:22:34;22.13;;;14.03;;
13720;SDS011;6932;51.438;5.470;2023-11-22T14:25:01;21.77;;;13.67;;
13720;SDS011;6932;51.438;5.470;2023-11-22T14:27:28;21.23;;;13.53;;
13720;SDS011;6932;51.438;5.470;2023-11-22T14:29:56;22.23;;;14.03;;
13720;SDS011;6932;51.438;5.470;2023-11-22T14:32:22;23.00;;;14.97;;
13720;SDS011;6932;51.438;5.470;2023-11-22T14:34:48;24.13;;;15.23;;
13720;SDS011;6932;51.438;5.470;2023-11-22T14:37:14;25.47;;;15.87;;
13720;SDS011;6932;51.438;5.470;2023-11-22T14:39:40;24.67;;;15.53;;
13720;SDS011;6932;51.438;5.470;2023-11-22T14:42:07;25.57;;;15.97;;
13720;SDS011;6932;51.438;5.470;2023-11-22T14:44:35;24.37;;;16.07;;
13720;SDS011;6932;51.438;5.470;2023-11-22T14:47:02;23.60;;;15.50;;
13720;SDS011;6932;51.438;5.470;2023-11-22T14:49:37;23.97;;;16.33;;
13720;SDS011;6932;51.438;5.470;2023-11-22T14:52:04;23.07;;;15.77;;
13720;SDS011;6932;51.438;5.470;2023-11-22T14:54:29;26.37;;;17.30;;
13720;SDS011;6932;51.438;5.470;2023-11-22T14:56:55;25.30;;;17.40;;
13720;SDS011;6932;51.438;5.470;2023-11-22T14:59:26;27.57;;;18.10;;
13720;SDS011;6932;51.438;5.470;2023-11-22T15:01:51;26.20;;;18.20;;
13720;SDS011;6932;51.438;5.470;2023-11-22T15:04:17;26.33;;;17.60;;
13720;SDS011;6932;51.438;5.470;2023-11-22T15:06:44;26.87;;;17.87;;
13720;SDS011;6932;51.438;5.470;2023-11-22T15:09:10;28.97;;;18.53;;
13720;SDS011;6932;51.438;5.470;2023-11-22T15:11:40;27.27;;;18.20;;
13720;SDS011;6932;51.438;5.470;2023-11-22T15:14:06;30.30;;;18.57;;
13720;SDS011;6932;51.438;5.470;2023-11-22T15:16:33;26.23;;;18.10;;
13720;SDS011;6932;51.438;5.470;2023-11-22T15:18:59;27.80;;;18.60;;
13720;SDS011;6932;51.438;5.470;2023-11-22T15:21:27;28.47;;;18.73;;
13720;SDS011;6932;51.438;5.470;2023-11-22T15:23:53;27.80;;;18.43;;
13720;SDS011;6932;51.438;5.470;2023-11-22T15:26:24;28.03;;;18.90;;
13720;SDS011;6932;51.438;5.470;2023-11-22T15:28:50;34.30;;;21.03;;
13720;SDS011;6932;51.438;5.470;2023-11-22T15:31:18;28.93;;;19.50;;
13720;SDS011;6932;51.438;5.470;2023-11-22T15:33:44;27.70;;;17.83;;
13720;SDS011;6932;51.438;5.470;2023-11-22T15:36:10;26.47;;;18.20;;
13720;SDS011;6932;51.438;5.470;2023-11-22T15:38:36;25.63;;;17.73;;
13720;SDS011;6932;51.438;5.470;2023-11-22T15:41:03;24.93;;;17.57;;
13720;SDS011;6932;51.438;5.470;2023-11-22T15:43:29;25.73;;;17.47;;
13720;SDS011;6932;51.438;5.470;2023-11-22T15:45:55;23.50;;;16.10;;
13720;SDS011;6932;51.438;5.470;2023-11-22T15:48:21;24.43;;;15.97;;
13720;SDS011;6932;51.438;5.470;2023-11-22T15:50:47;22.93;;;15.73;;
13720;SDS011;6932;51.438;5.470;2023-11-22T15:53:15;22.63;;;15.73;;
13720;SDS011;6932;51.438;5.470;2023-11-22T15:55:41;22.10;;;15.57;;
13720;SDS011;6932;51.438;5.470;2023-11-22T15:58:07;25.03;;;16.47;;
13720;SDS011;6932;51.438;5.470;2023-11-22T16:00:33;21.83;;;15.30;;
13720;SDS011;6932;51.438;5.470;2023-11-22T16:03:00;24.40;;;15.23;;
13720;SDS011;6932;51.438;5.470;2023-11-22T16:05:28;21.30;;;15.00;;
13720;SDS011;6932;51.438;5.470;2023-11-22T16:07:54;21.10;;;14.93;;
13720;SDS011;6932;51.438;5.470;2023-11-22T16:10:21;21.97;;;14.60;;
13720;SDS011;6932;51.438;5.470;2023-11-22T16:12:47;21.00;;;14.77;;
13720;SDS011;6932;51.438;5.470;2023-11-22T16:15:12;21.53;;;15.10;;
13720;SDS011;6932;51.438;5.470;2023-11-22T16:17:39;20.13;;;14.07;;
13720;SDS011;6932;51.438;5.470;2023-11-22T16:20:07;21.90;;;14.50;;
13720;SDS011;6932;51.438;5.470;2023-11-22T16:22:37;20.07;;;14.57;;
13720;SDS011;6932;51.438;5.470;2023-11-22T16:25:05;20.13;;;14.23;;
13720;SDS011;6932;51.438;5.470;2023-11-22T16:27:33;20.63;;;14.47;;
13720;SDS011;6932;51.438;5.470;2023-11-22T16:29:59;20.67;;;13.73;;
13720;SDS011;6932;51.438;5.470;2023-11-22T16:32:26;20.00;;;14.17;;
13720;SDS011;6932;51.438;5.470;2023-11-22T16:34:51;20.40;;;14.17;;
13720;SDS011;6932;51.438;5.470;2023-11-22T16:37:17;18.83;;;13.73;;
13720;SDS011;6932;51.438;5.470;2023-11-22T16:39:43;19.97;;;13.83;;
13720;SDS011;6932;51.438;5.470;2023-11-22T16:42:09;19.83;;;13.93;;
13720;SDS011;6932;51.438;5.470;2023-11-22T16:44:35;19.23;;;13.93;;
13720;SDS011;6932;51.438;5.470;2023-11-22T16:47:07;18.77;;;13.60;;
13720;SDS011;6932;51.438;5.470;2023-11-22T16:49:33;21.43;;;13.63;;
13720;SDS011;6932;51.438;5.470;2023-11-22T16:52:07;18.53;;;13.43;;
13720;SDS011;6932;51.438;5.470;2023-11-22T16:54:38;21.57;;;13.23;;
13720;SDS011;6932;51.438;5.470;2023-11-22T16:57:05;20.00;;;14.37;;
13720;SDS011;6932;51.438;5.470;2023-11-22T16:59:31;19.57;;;14.13;;
13720;SDS011;6932;51.438;5.470;2023-11-22T17:01:57;19.77;;;13.80;;
13720;SDS011;6932;51.438;5.470;2023-11-22T17:04:26;19.60;;;13.70;;
13720;SDS011;6932;51.438;5.470;2023-11-22T17:06:51;20.93;;;14.27;;